Time;durP1;ratioP1;P1;durP2;ratioP2;P2;SDS_P1;SDS_P2;PMS_P1;PMS_P2;Temp;Humidity;BMP_temperature;BMP_pressure;BME280_temperature;BME280_humidity;BME280_pressure;Samples;Min_cycle;Max_cycle;Signal;HPM_P1;HPM_P2
2022/09/28 00:01:42;;;;;;;12.48;9.95;;;;;;;7.54;100.00;99495.06;5073820;28;20040;-58
2022/09/28 00:04:07;;;;;;;16.75;10.07;;;;;;;7.41;100.00;99478.00;5073839;28;20028;-59
2022/09/28 00:06:33;;;;;;;12.73;10.35;;;;;;;7.54;100.00;99497.66;5073467;28;20066;-59
2022/09/28 00:09:00;;;;;;;13.20;10.13;;;;;;;7.54;100.00;99503.72;5073778;28;20439;-58
2022/09/28 00:11:28;;;;;;;13.77;10.13;;;;;;;7.56;100.00;99511.50;5073506;28;20040;-58
2022/09/28 00:13:58;;;;;;;14.63;10.48;;;;;;;7.54;100.00;99513.28;5073598;28;20085;-58
2022/09/28 00:16:27;;;;;;;15.93;10.25;;;;;;;7.53;100.00;99508.97;5073559;28;20146;-58
2022/09/28 00:18:53;;;;;;;14.43;10.77;;;;;;;7.54;100.00;99508.06;5073366;28;20040;-58
2022/09/28 00:21:29;;;;;;;14.25;10.70;;;;;;;7.63;100.00;99503.50;5073547;28;20040;-57
2022/09/28 00:24:16;;;;;;;13.85;10.73;;;;;;;7.57;100.00;99500.19;5073580;28;20044;-58
2022/09/28 00:26:41;;;;;;;15.52;10.90;;;;;;;7.55;100.00;99499.38;5073197;28;20038;-58
2022/09/28 00:29:15;;;;;;;14.90;11.13;;;;;;;7.48;100.00;99489.97;5073173;28;20406;-59
2022/09/28 00:31:42;;;;;;;15.05;11.30;;;;;;;7.58;100.00;99494.97;5072425;28;20302;-58
2022/09/28 00:34:07;;;;;;;15.35;11.57;;;;;;;7.60;100.00;99494.94;5072887;28;20074;-58
2022/09/28 00:36:32;;;;;;;13.68;11.63;;;;;;;7.63;100.00;99487.88;5073211;28;20055;-59
2022/09/28 00:38:58;;;;;;;14.38;11.48;;;;;;;7.60;100.00;99487.13;5072789;28;20032;-58
2022/09/28 00:41:26;;;;;;;16.40;12.10;;;;;;;7.63;100.00;99487.03;5073184;28;20036;-58
2022/09/28 00:43:53;;;;;;;20.38;11.95;;;;;;;7.59;100.00;99482.81;5072839;28;20075;-57
2022/09/28 00:46:32;;;;;;;14.00;11.23;;;;;;;7.45;100.00;99466.63;5072385;28;20113;-57
2022/09/28 00:49:02;;;;;;;18.90;11.73;;;;;;;7.51;100.00;99472.56;5072772;28;20055;-58
2022/09/28 00:51:30;;;;;;;15.65;12.32;;;;;;;7.44;100.00;99476.19;5072934;28;20086;-58
2022/09/28 00:53:55;;;;;;;16.50;11.70;;;;;;;7.41;100.00;99476.25;5072718;28;20036;-57
2022/09/28 00:56:25;;;;;;;14.40;12.05;;;;;;;7.37;100.00;99469.41;5072649;28;20051;-59
2022/09/28 00:58:53;;;;;;;17.80;12.95;;;;;;;7.39;100.00;99469.38;5072873;28;20034;-59
2022/09/28 01:01:18;;;;;;;19.10;12.27;;;;;;;7.45;100.00;99470.06;5072573;28;20032;-58
2022/09/28 01:03:47;;;;;;;16.30;12.80;;;;;;;7.48;100.00;99457.00;5072371;28;20120;-59
2022/09/28 01:06:21;;;;;;;16.42;12.80;;;;;;;7.56;100.00;99469.84;5072341;28;20036;-58
2022/09/28 01:08:50;;;;;;;15.52;12.80;;;;;;;7.56;100.00;99462.91;5072642;28;20036;-57
2022/09/28 01:11:17;;;;;;;17.48;13.18;;;;;;;7.55;100.00;99458.59;5072467;28;20048;-58
2022/09/28 01:13:43;;;;;;;14.15;12.43;;;;;;;7.60;100.00;99467.16;5072517;28;20032;-58
2022/09/28 01:16:25;;;;;;;17.73;12.85;;;;;;;7.64;100.00;99466.16;5072439;28;20119;-58
2022/09/28 01:19:35;;;;;;;17.95;13.32;;;;;;;7.65;100.00;99461.81;5072141;28;20094;-58
2022/09/28 01:22:34;;;;;;;17.77;13.43;;;;;;;7.65;100.00;99469.63;5072198;28;20047;-58
2022/09/28 01:25:10;;;;;;;17.08;13.02;;;;;;;7.65;100.00;99472.22;5071896;28;20113;-57
2022/09/28 01:27:41;;;;;;;19.88;13.85;;;;;;;7.62;100.00;99470.53;5072069;28;20040;-57
2022/09/28 01:30:13;;;;;;;19.13;13.13;;;;;;;7.61;100.00;99471.47;5071925;28;20044;-58
2022/09/28 01:32:46;;;;;;;;;;;;;;;7.69;100.00;99472.13;5072513;28;20036;-58
2022/09/28 01:35:15;;;;;;;21.05;13.52;;;;;;;7.60;100.00;99469.75;5071856;28;19912;-59
2022/09/28 01:38:00;;;;;;;21.13;14.95;;;;;;;7.59;100.00;99469.78;5071680;28;20371;-59
2022/09/28 01:40:27;;;;;;;18.92;14.77;;;;;;;7.59;100.00;99480.19;5071681;28;20040;-57
2022/09/28 01:43:03;;;;;;;18.13;15.52;;;;;;;7.63;100.00;99477.47;5071888;28;20071;-59
2022/09/28 01:45:34;;;;;;;24.15;16.23;;;;;;;7.56;100.00;99483.72;5071732;28;20025;-57
2022/09/28 01:48:03;;;;;;;22.38;16.55;;;;;;;7.60;100.00;99487.13;5071368;28;20064;-57
2022/09/28 01:50:34;;;;;;;22.67;16.23;;;;;;;7.64;100.00;99486.13;5071936;28;20029;-57
2022/09/28 01:53:17;;;;;;;23.30;16.70;;;;;;;7.64;100.00;99488.72;5071760;28;20185;-58
2022/09/28 01:55:49;;;;;;;23.65;17.10;;;;;;;7.62;100.00;99475.75;5071815;28;20070;-59
2022/09/28 01:58:22;;;;;;;22.93;17.40;;;;;;;7.66;100.00;99487.81;5071888;28;20121;-58
2022/09/28 02:00:54;;;;;;;25.15;17.92;;;;;;;7.65;100.00;99487.84;5071579;28;20029;-59
2022/09/28 02:03:26;;;;;;;24.38;18.52;;;;;;;7.67;100.00;99476.50;5071799;28;20040;-58
2022/09/28 02:05:57;;;;;;;26.55;19.50;;;;;;;7.66;100.00;99472.19;5071642;28;20056;-57
2022/09/28 02:08:30;;;;;;;23.95;18.77;;;;;;;7.71;100.00;99477.28;5071627;28;20070;-57
2022/09/28 02:11:11;;;;;;;25.80;17.85;;;;;;;7.76;100.00;99475.44;5071189;28;20040;-57
2022/09/28 02:13:49;;;;;;;27.03;18.97;;;;;;;7.77;100.00;99474.56;5071576;28;20047;-57
2022/09/28 02:16:42;;;;;;;23.67;18.02;;;;;;;7.78;100.00;99475.41;5071702;28;20020;-58
2022/09/28 02:19:11;;;;;;;22.30;16.88;;;;;;;7.76;100.00;99478.06;5071601;28;20028;-57
2022/09/28 02:21:52;;;;;;;21.10;16.80;;;;;;;7.77;100.00;99473.69;5071492;28;20033;-58
2022/09/28 02:24:26;;;;;;;20.23;14.95;;;;;;;7.73;100.00;99470.31;5071486;28;20058;-59
2022/09/28 02:26:54;;;;;;;19.83;14.93;;;;;;;7.66;100.00;99463.53;5071478;28;20047;-58
2022/09/28 02:29:19;;;;;;;21.85;13.95;;;;;;;7.59;100.00;99475.00;5071372;28;20115;-58
2022/09/28 02:31:45;;;;;;;18.95;13.70;;;;;;;7.51;100.00;99469.09;5071272;28;20115;-57
2022/09/28 02:34:10;;;;;;;19.65;13.90;;;;;;;7.46;100.00;99470.94;5071415;28;20131;-58
2022/09/28 02:36:36;;;;;;;17.98;12.85;;;;;;;7.41;100.00;99468.47;5071349;28;20440;-57
2022/09/28 02:39:01;;;;;;;17.08;11.95;;;;;;;7.39;100.00;99466.78;5071291;28;20037;-58
2022/09/28 02:41:52;;;;;;;18.27;11.88;;;;;;;7.39;100.00;99474.59;5071457;28;20047;-58
2022/09/28 02:44:37;;;;;;;16.50;12.32;;;;;;;7.32;100.00;99472.09;5071151;28;20129;-58
2022/09/28 02:47:43;;;;;;;16.08;11.70;;;;;;;7.31;100.00;99469.53;5071234;28;20115;-58
2022/09/28 02:50:40;;;;;;;18.88;11.38;;;;;;;7.26;100.00;99472.25;5070814;28;20429;-58
2022/09/28 02:53:15;;;;;;;16.33;11.40;;;;;;;7.23;100.00;99471.47;5071250;28;20044;-58
2022/09/28 02:55:58;;;;;;;14.57;11.60;;;;;;;7.22;100.00;99480.16;5074097;28;20067;-59
2022/09/28 02:58:33;;;;;;;14.52;10.75;;;;;;;7.21;100.00;99484.50;5075100;28;20029;-58
2022/09/28 03:01:22;;;;;;;14.70;10.68;;;;;;;7.26;100.00;99477.47;5075153;28;20518;-58
2022/09/28 03:03:53;;;;;;;18.33;10.57;;;;;;;7.26;100.00;99485.28;5074927;28;20032;-58
2022/09/28 03:06:25;;;;;;;16.90;10.82;;;;;;;7.28;100.00;99483.47;5074898;28;20125;-57
2022/09/28 03:08:59;;;;;;;15.40;9.68;;;;;;;7.31;100.00;99487.75;5074737;28;20467;-58
2022/09/28 03:11:36;;;;;;;13.57;9.95;;;;;;;7.27;100.00;99478.31;5074689;28;20115;-57
2022/09/28 03:14:03;;;;;;;13.02;9.73;;;;;;;7.33;100.00;99484.22;5074542;28;20040;-58
2022/09/28 03:16:30;;;;;;;13.77;9.48;;;;;;;7.28;100.00;99483.47;5074554;28;20333;-57
2022/09/28 03:18:56;;;;;;;12.32;9.20;;;;;;;7.31;100.00;99473.00;5074617;28;20364;-58
2022/09/28 03:21:21;;;;;;;15.15;9.05;;;;;;;7.34;100.00;99483.34;5074529;28;20028;-58
2022/09/28 03:23:47;;;;;;;14.63;8.55;;;;;;;7.33;100.00;99478.16;5074546;28;20033;-58
2022/09/28 03:26:13;;;;;;;13.88;8.77;;;;;;;7.37;100.00;99481.56;5074503;28;20032;-57
2022/09/28 03:28:39;;;;;;;11.52;7.57;;;;;;;7.39;100.00;99479.78;5074191;28;20044;-58
2022/09/28 03:31:05;;;;;;;9.48;7.03;;;;;;;7.40;100.00;99481.50;5074561;28;20602;-58
2022/09/28 03:33:30;;;;;;;8.70;7.00;;;;;;;7.36;100.00;99479.84;5074335;28;20476;-58
2022/09/28 03:35:56;;;;;;;11.57;7.38;;;;;;;7.43;100.00;99479.69;5074462;28;20043;-58
2022/09/28 03:38:21;;;;;;;8.95;7.28;;;;;;;7.43;100.00;99478.84;5074257;28;20032;-58
2022/09/28 03:40:58;;;;;;;10.15;6.53;;;;;;;7.41;100.00;99483.22;5074307;28;20475;-59
2022/09/28 03:43:24;;;;;;;10.38;6.75;;;;;;;7.40;100.00;99484.97;5074261;28;20149;-58
2022/09/28 03:45:57;;;;;;;10.77;6.78;;;;;;;7.39;100.00;99487.59;5073723;28;20040;-58
2022/09/28 03:48:29;;;;;;;10.40;6.90;;;;;;;7.40;100.00;99484.09;5055317;28;20068;-58
2022/09/28 03:50:56;;;;;;;11.13;6.07;;;;;;;7.38;100.00;99488.47;5054096;28;20094;-58
2022/09/28 03:53:22;;;;;;;8.68;6.10;;;;;;;7.36;100.00;99488.50;5053859;28;20037;-58
2022/09/28 03:55:49;;;;;;;9.75;6.70;;;;;;;7.35;100.00;99494.59;5053679;28;20033;-58
2022/09/28 03:58:15;;;;;;;8.73;6.15;;;;;;;7.31;100.00;99486.00;5053817;28;20432;-58
2022/09/28 04:00:40;;;;;;;9.48;6.50;;;;;;;7.28;100.00;99488.66;5053735;28;20139;-57
2022/09/28 04:03:07;;;;;;;8.35;5.32;;;;;;;7.29;100.00;99481.72;5053790;28;20480;-58
2022/09/28 04:05:32;;;;;;;7.35;5.70;;;;;;;7.29;100.00;99492.13;5052519;28;20036;-57
2022/09/28 04:07:57;;;;;;;7.90;5.32;;;;;;;7.28;100.00;99486.06;5053561;28;20150;-57
2022/09/28 04:10:24;;;;;;;7.10;5.07;;;;;;;7.33;100.00;99496.38;5053654;28;20056;-58
2022/09/28 04:12:54;;;;;;;8.18;5.35;;;;;;;7.34;100.00;99488.53;5053620;28;20036;-58
2022/09/28 04:15:19;;;;;;;7.43;5.57;;;;;;;7.35;100.00;99497.22;5058869;28;20064;-58
2022/09/28 04:17:44;;;;;;;10.48;5.10;;;;;;;7.38;100.00;99499.75;5053279;28;20061;-59
2022/09/28 04:20:09;;;;;;;7.95;4.65;;;;;;;7.35;100.00;99481.59;5053287;28;20033;-58
2022/09/28 04:22:36;;;;;;;7.15;5.00;;;;;;;7.34;100.00;99487.69;5055835;28;20074;-57
2022/09/28 04:25:03;;;;;;;6.15;4.10;;;;;;;7.32;100.00;99492.94;5061887;28;20039;-57
2022/09/28 04:30:13;;;;;;;4.90;3.80;;;;;;;7.26;100.00;99476.59;5073364;28;20074;-57
2022/09/28 04:32:38;;;;;;;5.93;3.75;;;;;;;7.27;100.00;99479.16;5073216;28;20036;-57
2022/09/28 04:35:04;;;;;;;5.78;3.53;;;;;;;7.30;100.00;99484.28;5073123;28;20047;-58
2022/09/28 04:37:30;;;;;;;5.97;3.22;;;;;;;7.28;100.00;99478.25;5073237;28;20040;-57
2022/09/28 04:39:55;;;;;;;7.57;3.55;;;;;;;7.26;100.00;99479.22;5073165;28;20036;-57
2022/09/28 04:42:20;;;;;;;5.35;3.30;;;;;;;7.23;100.00;99476.66;5073130;28;20094;-57
2022/09/28 04:44:46;;;;;;;4.13;3.20;;;;;;;7.23;100.00;99482.72;5072968;28;20028;-58
2022/09/28 04:47:11;;;;;;;4.55;3.60;;;;;;;7.14;100.00;99477.72;5072840;28;20060;-56
2022/09/28 04:49:37;;;;;;;7.20;3.42;;;;;;;7.11;100.00;99480.38;5072772;28;20056;-57
2022/09/28 04:52:03;;;;;;;5.70;3.13;;;;;;;7.07;100.00;99483.09;5072807;28;20094;-58
2022/09/28 04:54:28;;;;;;;5.20;3.10;;;;;;;7.00;100.00;99477.16;5072784;28;20042;-57
2022/09/28 04:56:54;;;;;;;5.65;3.00;;;;;;;7.01;100.00;99497.06;5072640;28;20115;-58
2022/09/28 04:59:19;;;;;;;6.07;3.20;;;;;;;6.95;100.00;99490.25;5072836;28;20062;-57
2022/09/28 05:01:46;;;;;;;4.18;3.17;;;;;;;6.87;100.00;99480.91;5072658;28;20044;-57
2022/09/28 05:04:12;;;;;;;5.88;3.45;;;;;;;6.85;100.00;99500.88;5072240;28;20367;-57
2022/09/28 05:06:37;;;;;;;5.03;3.22;;;;;;;6.83;100.00;99507.84;5072508;28;20123;-58
2022/09/28 05:09:02;;;;;;;5.63;3.20;;;;;;;6.78;100.00;99507.06;5072553;28;20033;-58
2022/09/28 05:11:28;;;;;;;5.20;3.35;;;;;;;6.76;100.00;99495.84;5072442;28;20038;-57
2022/09/28 05:13:53;;;;;;;5.18;3.17;;;;;;;6.76;100.00;99498.44;5072563;28;20044;-58
2022/09/28 05:16:19;;;;;;;4.80;3.25;;;;;;;6.75;100.00;99502.81;5072208;28;20143;-57
2022/09/28 05:18:44;;;;;;;4.68;3.75;;;;;;;6.76;100.00;99514.03;5072141;28;20029;-57
2022/09/28 05:21:11;;;;;;;7.95;3.45;;;;;;;6.82;100.00;99506.97;5072235;28;20515;-57
2022/09/28 05:23:37;;;;;;;4.60;3.65;;;;;;;6.83;100.00;99507.84;5072012;28;20090;-60
2022/09/28 05:26:03;;;;;;;4.47;3.50;;;;;;;6.85;100.00;99500.88;5072136;28;20391;-57
2022/09/28 05:28:30;;;;;;;5.55;3.92;;;;;;;6.85;100.00;99506.94;5072233;28;20043;-57
2022/09/28 05:31:00;;;;;;;5.47;3.80;;;;;;;6.86;100.00;99507.78;5072042;28;20127;-57
2022/09/28 05:33:26;;;;;;;7.18;4.30;;;;;;;6.87;100.00;99512.09;5071662;28;20047;-57
2022/09/28 05:35:51;;;;;;;6.03;4.35;;;;;;;6.85;100.00;99500.88;5072087;28;20040;-57
2022/09/28 05:38:17;;;;;;;4.75;4.25;;;;;;;6.85;100.00;99506.94;5072056;28;20060;-56
2022/09/28 05:40:42;;;;;;;6.78;4.82;;;;;;;6.80;100.00;99498.34;5071966;28;20362;-57
2022/09/28 05:43:07;;;;;;;7.43;5.07;;;;;;;6.80;100.00;99497.50;5071958;28;20043;-57
2022/09/28 05:45:32;;;;;;;9.05;5.60;;;;;;;6.77;100.00;99497.56;5071620;28;20086;-58
2022/09/28 05:47:58;;;;;;;9.52;5.65;;;;;;;6.81;100.00;99496.59;5071386;28;20411;-58
2022/09/28 05:50:23;;;;;;;6.93;5.97;;;;;;;6.87;100.00;99501.69;5071893;28;20048;-57
2022/09/28 05:52:58;;;;;;;9.73;6.13;;;;;;;6.85;100.00;99486.13;5062339;28;20044;-57
2022/09/28 05:55:23;;;;;;;11.50;6.38;;;;;;;6.97;100.00;99514.47;5051838;28;20098;-58
2022/09/28 05:57:48;;;;;;;10.13;6.60;;;;;;;7.02;100.00;99511.78;5051800;28;20685;-59
2022/09/28 06:00:14;;;;;;;11.60;6.90;;;;;;;7.08;100.00;99513.41;5051738;28;20037;-59
2022/09/28 06:02:39;;;;;;;9.35;6.85;;;;;;;7.07;100.00;99511.69;5051588;28;20072;-58
2022/09/28 06:05:05;;;;;;;11.43;7.00;;;;;;;7.07;100.00;99517.75;5051357;28;20523;-59
2022/09/28 06:07:30;;;;;;;10.88;7.32;;;;;;;7.05;100.00;99524.75;5051511;28;20086;-59
2022/09/28 06:09:55;;;;;;;12.30;7.40;;;;;;;6.99;100.00;99515.31;5051555;28;20056;-57
2022/09/28 06:12:21;;;;;;;11.25;7.13;;;;;;;6.94;100.00;99516.28;5051689;28;20028;-58
2022/09/28 06:14:47;;;;;;;9.75;7.18;;;;;;;6.83;100.00;99510.44;5051422;28;20037;-58
2022/09/28 06:17:12;;;;;;;11.73;7.70;;;;;;;6.92;100.00;99533.69;5051137;28;20115;-58
2022/09/28 06:19:38;;;;;;;9.98;7.70;;;;;;;6.81;100.00;99528.66;5051255;28;20174;-57
2022/09/28 06:22:03;;;;;;;10.38;7.50;;;;;;;6.77;100.00;99527.00;5051497;28;20049;-58
2022/09/28 06:24:28;;;;;;;10.88;7.47;;;;;;;6.80;100.00;99531.28;5051371;28;20071;-57
2022/09/28 06:26:54;;;;;;;11.98;8.38;;;;;;;6.78;100.00;99538.25;5051378;28;20396;-58
2022/09/28 06:29:19;;;;;;;13.48;8.75;;;;;;;6.80;100.00;99539.09;5052716;28;20041;-58
2022/09/28 06:31:46;;;;;;;13.38;9.32;;;;;;;6.81;100.00;99528.66;5055485;28;20037;-58
2022/09/28 06:34:11;;;;;;;14.80;9.88;;;;;;;6.89;100.00;99534.59;5055444;28;20036;-57
2022/09/28 06:36:38;;;;;;;16.58;10.40;;;;;;;7.01;100.00;99541.28;5055645;28;20035;-58
2022/09/28 06:39:04;;;;;;;16.90;11.38;;;;;;;7.08;100.00;99537.69;5055567;28;20029;-58
2022/09/28 06:41:29;;;;;;;17.48;12.07;;;;;;;7.34;100.00;99537.13;5055213;28;20040;-59
2022/09/28 06:43:55;;;;;;;16.35;11.25;;;;;;;7.57;100.00;99542.72;5055325;28;20037;-57
2022/09/28 06:46:20;;;;;;;15.48;11.27;;;;;;;7.78;100.00;99543.13;5054838;28;20041;-58
2022/09/28 06:48:46;;;;;;;17.45;10.10;;;;;;;7.89;100.00;99549.78;5055031;28;20121;-58
2022/09/28 06:51:11;;;;;;;13.73;9.95;;;;;;;8.00;100.00;99537.34;5055377;28;20036;-57
2022/09/28 06:53:36;;;;;;;15.75;10.05;;;;;;;7.99;100.00;99538.25;5055191;28;20695;-58
2022/09/28 06:56:02;;;;;;;15.82;10.43;;;;;;;8.06;100.00;99538.09;5055013;28;20506;-57
2022/09/28 06:58:27;;;;;;;14.70;10.80;;;;;;;8.06;100.00;99551.13;5054404;28;20033;-58
2022/09/28 07:00:58;;;;;;;15.57;10.60;;;;;;;8.07;100.00;99545.88;5054586;28;20474;-57
2022/09/28 07:03:24;;;;;;;13.45;10.77;;;;;;;8.11;100.00;99547.53;5054877;28;20044;-57
2022/09/28 07:05:52;;;;;;;15.60;10.18;;;;;;;8.12;100.00;99556.22;5054662;28;20045;-57
2022/09/28 07:08:22;;;;;;;12.10;9.82;;;;;;;8.14;100.00;99551.81;5055016;28;20059;-57
2022/09/28 07:10:48;;;;;;;16.05;9.38;;;;;;;8.15;100.00;99559.56;5057566;28;20044;-57
2022/09/28 07:13:15;;;;;;;15.32;9.55;;;;;;;8.29;100.00;99567.06;5066920;28;20071;-58
2022/09/28 07:15:42;;;;;;;13.55;9.10;;;;;;;8.40;100.00;99559.88;5067292;28;20028;-58
2022/09/28 07:18:08;;;;;;;13.02;8.73;;;;;;;8.36;100.00;99569.50;5067926;28;20054;-58
2022/09/28 07:20:34;;;;;;;11.38;8.68;;;;;;;8.32;100.00;99565.25;5059277;28;20028;-59
2022/09/28 07:23:02;;;;;;;12.63;9.73;;;;;;;8.28;100.00;99563.63;5067430;28;20440;-58
2022/09/28 07:25:31;;;;;;;15.00;8.60;;;;;;;8.31;100.00;99560.91;5062663;28;20089;-58
2022/09/28 07:27:58;;;;;;;14.00;8.30;;;;;;;8.35;100.00;99564.34;5063708;28;20056;-58
2022/09/28 07:30:26;;;;;;;12.18;8.48;;;;;;;8.44;100.00;99566.72;5063395;28;20032;-59
2022/09/28 07:32:51;;;;;;;11.85;8.20;;;;;;;8.41;100.00;99550.31;5064923;28;20075;-58
2022/09/28 07:35:17;;;;;;;11.02;7.80;;;;;;;8.52;100.00;99569.97;5063321;28;20108;-58
2022/09/28 07:37:42;;;;;;;11.45;7.35;;;;;;;8.48;100.00;99565.75;5063858;28;20036;-57
2022/09/28 07:42:52;;;;;;;12.77;7.38;;;;;;;8.68;100.00;99579.13;5054367;28;20080;-59
2022/09/28 07:45:23;;;;;;;11.25;7.50;;;;;;;8.73;100.00;99573.78;5054066;28;20032;-61
2022/09/28 07:47:54;;;;;;;11.68;7.65;;;;;;;8.75;100.00;99577.22;5054291;28;20029;-59
2022/09/28 07:50:20;;;;;;;11.27;7.40;;;;;;;8.76;100.00;99578.06;5054232;28;20044;-59
2022/09/28 07:52:45;;;;;;;10.32;7.72;;;;;;;8.81;100.00;99581.44;5053598;28;20060;-57
2022/09/28 07:55:11;;;;;;;11.43;8.30;;;;;;;8.85;100.00;99575.22;5054028;28;20033;-59
2022/09/28 07:57:36;;;;;;;10.80;7.72;;;;;;;8.90;100.00;99584.63;5053926;28;20029;-58
2022/09/28 08:00:05;;;;;;;8.80;7.15;;;;;;;8.96;100.00;99588.84;5053928;28;20043;-58
2022/09/28 08:02:33;;;;;;;12.20;7.70;;;;;;;8.91;100.00;99581.13;5054044;28;20068;-60
2022/09/28 08:04:59;;;;;;;11.35;8.18;;;;;;;8.98;100.00;99581.81;5053329;28;20112;-60
2022/09/28 08:07:24;;;;;;;10.65;7.60;;;;;;;8.99;100.00;99589.63;5054514;28;20120;-58
2022/09/28 08:09:50;;;;;;;10.82;8.80;;;;;;;9.02;100.00;99594.72;5070828;28;20112;-57
2022/09/28 08:12:18;;;;;;;12.27;7.85;;;;;;;9.05;100.00;99592.03;5073659;28;20079;-58
2022/09/28 08:14:47;;;;;;;9.85;7.55;;;;;;;9.34;100.00;99587.78;5073656;28;20336;-59
2022/09/28 08:17:12;;;;;;;11.15;7.97;;;;;;;9.67;100.00;99588.56;5073718;28;20033;-59
2022/09/28 08:22:22;;;;;;;8.82;6.85;;;;;;;11.65;100.00;99597.53;5073275;28;20117;-58
2022/09/28 08:24:49;;;;;;;9.10;6.70;;;;;;;12.14;100.00;99589.53;5073451;28;20040;-58
2022/09/28 08:27:15;;;;;;;9.90;5.97;;;;;;;12.47;97.41;99597.78;5073302;28;20090;-58
2022/09/28 08:29:41;;;;;;;8.25;5.90;;;;;;;12.39;96.20;99594.66;5073074;28;20032;-59
2022/09/28 08:32:08;;;;;;;8.10;5.75;;;;;;;12.33;97.75;99596.66;5073290;28;20036;-58
2022/09/28 08:34:38;;;;;;;8.45;5.72;;;;;;;12.14;98.06;99599.16;5073152;28;20036;-58
2022/09/28 08:37:03;;;;;;;7.30;5.55;;;;;;;11.93;98.46;99598.25;5065725;28;20128;-58
2022/09/28 08:39:29;;;;;;;7.85;6.00;;;;;;;11.73;99.53;99601.59;5053192;28;20508;-58
2022/09/28 08:41:54;;;;;;;7.80;5.80;;;;;;;11.65;100.00;99615.88;5053288;28;20163;-57
2022/09/28 08:44:25;;;;;;;10.63;5.67;;;;;;;11.58;100.00;99615.28;5053240;28;20368;-59
2022/09/28 08:46:55;;;;;;;9.93;5.93;;;;;;;11.56;100.00;99616.25;5052723;28;20730;-57
2022/09/28 08:49:29;;;;;;;9.18;5.82;;;;;;;11.58;100.00;99631.00;5052977;28;20064;-57
2022/09/28 08:52:10;;;;;;;7.05;5.30;;;;;;;11.54;99.78;99624.16;5052242;28;20043;-58
2022/09/28 08:54:43;;;;;;;6.88;4.88;;;;;;;11.51;97.81;99624.25;5052791;28;20037;-57
2022/09/28 08:57:46;;;;;;;7.38;5.30;;;;;;;11.71;100.00;99620.91;5053124;28;20037;-57
2022/09/28 09:00:21;;;;;;;6.70;4.90;;;;;;;11.71;99.77;99626.16;5021429;28;20503;-57
2022/09/28 09:02:47;;;;;;;7.68;4.90;;;;;;;11.80;98.94;99625.81;5052812;28;20045;-58
2022/09/28 09:05:18;;;;;;;8.52;5.20;;;;;;;11.94;99.76;99622.69;5052706;28;20037;-59
2022/09/28 09:07:47;;;;;;;6.65;5.20;;;;;;;12.06;99.35;99627.47;5052677;28;20543;-59
2022/09/28 09:10:27;;;;;;;7.88;5.20;;;;;;;12.09;97.97;99625.59;5052433;28;20041;-58
2022/09/28 09:13:20;;;;;;;10.48;5.50;;;;;;;12.28;98.16;99633.59;5052580;28;20040;-58
2022/09/28 09:16:30;;;;;;;5.45;4.63;;;;;;;12.48;96.73;99640.63;5052681;28;20078;-58
2022/09/28 09:19:07;;;;;;;6.63;5.10;;;;;;;12.57;97.76;99635.03;5052332;28;20488;-58
2022/09/28 09:21:38;;;;;;;7.25;4.90;;;;;;;12.75;98.52;99644.78;5052578;28;20045;-58
2022/09/28 09:24:06;;;;;;;6.13;5.03;;;;;;;13.12;97.93;99640.59;5052168;28;20045;-58
2022/09/28 09:26:39;;;;;;;7.25;4.82;;;;;;;13.21;96.48;99650.72;5052222;28;20112;-58
2022/09/28 09:29:23;;;;;;;7.80;4.95;;;;;;;13.06;94.88;99646.09;5052201;28;20032;-58
2022/09/28 09:32:06;;;;;;;4.95;3.85;;;;;;;12.97;95.14;99647.34;5052160;28;20036;-59
2022/09/28 09:35:08;;;;;;;8.32;4.72;;;;;;;13.32;96.22;99635.38;5052294;28;20450;-59
2022/09/28 09:37:56;;;;;;;7.25;4.50;;;;;;;13.46;91.02;99638.22;5051680;28;20515;-58
2022/09/28 09:40:47;;;;;;;5.93;3.97;;;;;;;13.47;93.23;99644.34;5052159;28;20033;-58
2022/09/28 09:43:31;;;;;;;4.87;4.00;;;;;;;13.61;91.40;99651.59;5051820;28;20133;-59
2022/09/28 09:46:25;;;;;;;7.25;3.83;;;;;;;13.57;88.29;99649.09;5051931;28;20056;-58
2022/09/28 09:49:04;;;;;;;6.57;3.58;;;;;;;13.61;90.06;99655.09;5028006;28;20080;-57
2022/09/28 09:51:47;;;;;;;5.88;3.40;;;;;;;13.71;90.04;99651.09;5051738;28;20153;-58
2022/09/28 09:54:41;;;;;;;5.57;3.97;;;;;;;13.85;89.43;99658.41;5051795;28;20120;-58
2022/09/28 09:57:17;;;;;;;5.38;3.95;;;;;;;13.79;83.00;99656.03;5051953;28;20025;-58
2022/09/28 09:59:44;;;;;;;8.23;3.88;;;;;;;13.75;88.92;99657.09;5051849;28;20032;-60
2022/09/28 10:02:33;;;;;;;7.53;3.63;;;;;;;13.80;88.96;99653.34;5051583;28;20063;-58
2022/09/28 10:05:24;;;;;;;4.95;2.90;;;;;;;13.67;87.66;99635.56;5050847;28;20040;-58
2022/09/28 10:08:01;;;;;;;3.72;2.55;;;;;;;13.78;85.87;99655.19;5051678;28;20351;-58
2022/09/28 10:10:34;;;;;;;5.00;3.42;;;;;;;13.87;85.09;99656.53;5051502;28;20120;-59
2022/09/28 10:12:59;;;;;;;7.00;3.58;;;;;;;13.86;83.94;99654.81;5051515;28;20037;-58
2022/09/28 10:15:27;;;;;;;7.45;3.20;;;;;;;13.74;83.93;99653.59;5051564;28;20163;-59
2022/09/28 10:17:55;;;;;;;6.93;2.88;;;;;;;13.74;83.35;99650.13;5051576;28;20044;-59
2022/09/28 10:20:21;;;;;;;5.45;3.30;;;;;;;13.77;83.02;99652.63;5051611;28;20052;-59
2022/09/28 10:22:49;;;;;;;6.85;3.40;;;;;;;13.96;82.62;99650.00;5051483;28;20115;-58
2022/09/28 10:25:16;;;;;;;5.50;3.10;;;;;;;14.19;80.64;99653.28;5051307;28;20044;-58
2022/09/28 10:27:45;;;;;;;4.35;3.08;;;;;;;14.31;81.44;99654.47;5051397;28;20029;-59
2022/09/28 10:30:22;;;;;;;4.32;3.00;;;;;;;14.45;80.47;99646.78;5051487;28;20029;-57
2022/09/28 10:32:49;;;;;;;4.65;2.97;;;;;;;14.69;82.67;99652.66;5051350;28;20441;-58
2022/09/28 10:35:17;;;;;;;3.88;2.80;;;;;;;14.95;79.18;99646.91;5051357;28;20032;-58
2022/09/28 10:37:56;;;;;;;5.07;3.35;;;;;;;14.91;78.02;99648.00;5051061;28;20044;-58
2022/09/28 10:40:29;;;;;;;10.52;3.38;;;;;;;14.72;78.06;99644.56;5051014;28;20087;-58
2022/09/28 10:43:14;;;;;;;6.18;3.03;;;;;;;14.61;79.40;99642.47;5051433;28;20032;-57
2022/09/28 10:45:39;;;;;;;4.93;3.50;;;;;;;14.36;78.45;99641.94;5051199;28;20037;-58
2022/09/28 10:48:13;;;;;;;6.18;3.33;;;;;;;14.21;80.44;99640.03;5051050;28;20048;-57
2022/09/28 10:50:39;;;;;;;5.10;3.35;;;;;;;14.10;81.34;99639.69;5052893;28;20037;-59
2022/09/28 10:53:18;;;;;;;4.82;3.28;;;;;;;13.87;81.59;99646.84;5080113;28;20040;-58
2022/09/28 10:55:56;;;;;;;4.15;3.08;;;;;;;13.58;83.78;99644.72;5071314;28;20032;-58
2022/09/28 10:58:41;;;;;;;6.53;3.85;;;;;;;13.39;86.08;99644.66;5071292;28;20037;-57
2022/09/28 11:01:10;;;;;;;6.70;3.88;;;;;;;13.56;87.79;99643.91;5070836;28;20041;-58
2022/09/28 11:03:58;;;;;;;6.55;3.38;;;;;;;13.86;85.53;99649.56;5071062;28;20086;-58
2022/09/28 11:06:45;;;;;;;4.35;2.80;;;;;;;14.20;85.01;99644.44;5070615;28;20036;-59
2022/09/28 11:09:29;;;;;;;5.93;2.55;;;;;;;14.31;82.27;99635.19;5071081;28;20042;-59
2022/09/28 11:11:58;;;;;;;4.25;3.00;;;;;;;14.37;78.01;99637.53;5071122;28;20045;-59
2022/09/28 11:14:36;;;;;;;4.72;2.60;;;;;;;14.43;77.36;99646.00;5071164;28;20032;-59
2022/09/28 11:17:24;;;;;;;5.93;2.83;;;;;;;14.61;78.27;99642.47;5074706;28;20068;-58
2022/09/28 11:19:49;;;;;;;4.35;2.60;;;;;;;14.82;79.79;99645.84;5074770;28;20060;-59
2022/09/28 11:22:27;;;;;;;3.97;1.90;;;;;;;15.04;76.88;99644.75;5074545;28;20094;-58
2022/09/28 11:25:17;;;;;;;4.75;2.17;;;;;;;15.11;77.42;99639.09;5074680;28;20101;-57
2022/09/28 11:27:51;;;;;;;3.65;1.60;;;;;;;15.10;77.23;99647.06;5074659;28;20134;-58
2022/09/28 11:30:25;;;;;;;4.82;1.90;;;;;;;14.92;76.92;99640.94;5074359;28;20063;-58
2022/09/28 11:32:59;;;;;;;3.58;1.80;;;;;;;14.62;76.25;99632.78;5073729;28;20037;-58
2022/09/28 11:35:36;;;;;;;5.28;2.00;;;;;;;14.44;75.55;99631.06;5074603;28;20032;-58
2022/09/28 11:38:17;;;;;;;3.50;1.70;;;;;;;14.42;78.21;99633.75;5074300;28;20032;-57
2022/09/28 11:40:59;;;;;;;4.45;1.95;;;;;;;14.40;78.65;99640.88;5074271;28;20032;-58
2022/09/28 11:43:44;;;;;;;3.72;1.75;;;;;;;14.38;79.69;99645.31;5054814;28;20044;-58
2022/09/28 11:46:19;;;;;;;6.40;2.50;;;;;;;14.37;75.58;99646.28;5053967;28;20115;-58
2022/09/28 11:48:49;;;;;;;3.72;2.25;;;;;;;14.62;79.83;99645.97;5053789;28;20457;-58
2022/09/28 11:51:19;;;;;;;6.00;2.53;;;;;;;14.99;77.17;99634.44;5054087;28;20029;-58
2022/09/28 11:53:53;;;;;;;4.80;2.70;;;;;;;15.17;74.90;99644.06;5053669;28;20411;-57